sensor_id;sensor_type;location;lat;lon;timestamp;P1;durP1;ratioP1;P2;durP2;ratioP2
9422;SDS011;65863;49.506;10.400;2023-11-19T00:01:51;6.80;;;5.97;;
9422;SDS011;65863;49.506;10.400;2023-11-19T00:04:36;8.60;;;6.73;;
9422;SDS011;65863;49.506;10.400;2023-11-19T00:07:22;7.73;;;6.80;;
9422;SDS011;65863;49.506;10.400;2023-11-19T00:10:16;8.47;;;7.20;;
9422;SDS011;65863;49.506;10.400;2023-11-19T00:13:04;7.50;;;6.80;;
9422;SDS011;65863;49.506;10.400;2023-11-19T00:15:48;7.00;;;6.33;;
9422;SDS011;65863;49.506;10.400;2023-11-19T00:18:32;6.73;;;6.07;;
9422;SDS011;65863;49.506;10.400;2023-11-19T00:21:16;6.63;;;5.90;;
9422;SDS011;65863;49.506;10.400;2023-11-19T00:24:00;6.80;;;6.10;;
9422;SDS011;65863;49.506;10.400;2023-11-19T00:26:45;6.77;;;5.87;;
9422;SDS011;65863;49.506;10.400;2023-11-19T00:29:29;6.63;;;5.93;;
9422;SDS011;65863;49.506;10.400;2023-11-19T00:32:13;6.83;;;5.93;;
9422;SDS011;65863;49.506;10.400;2023-11-19T00:34:58;6.73;;;6.03;;
9422;SDS011;65863;49.506;10.400;2023-11-19T00:37:42;6.43;;;5.83;;
9422;SDS011;65863;49.506;10.400;2023-11-19T00:40:29;7.77;;;6.77;;
9422;SDS011;65863;49.506;10.400;2023-11-19T00:43:13;6.30;;;5.50;;
9422;SDS011;65863;49.506;10.400;2023-11-19T00:45:57;6.30;;;5.70;;
9422;SDS011;65863;49.506;10.400;2023-11-19T00:48:41;6.23;;;5.63;;
9422;SDS011;65863;49.506;10.400;2023-11-19T00:51:25;6.40;;;5.80;;
9422;SDS011;65863;49.506;10.400;2023-11-19T00:54:10;6.10;;;5.50;;
9422;SDS011;65863;49.506;10.400;2023-11-19T00:56:54;6.97;;;5.33;;
9422;SDS011;65863;49.506;10.400;2023-11-19T00:59:41;5.57;;;5.07;;
9422;SDS011;65863;49.506;10.400;2023-11-19T01:02:26;6.10;;;5.10;;
9422;SDS011;65863;49.506;10.400;2023-11-19T01:05:10;6.03;;;5.43;;
9422;SDS011;65863;49.506;10.400;2023-11-19T01:07:58;5.63;;;5.13;;
9422;SDS011;65863;49.506;10.400;2023-11-19T01:10:42;5.73;;;5.13;;
9422;SDS011;65863;49.506;10.400;2023-11-19T01:13:27;6.13;;;5.43;;
9422;SDS011;65863;49.506;10.400;2023-11-19T01:16:12;6.17;;;5.13;;
9422;SDS011;65863;49.506;10.400;2023-11-19T01:18:56;5.30;;;4.80;;
9422;SDS011;65863;49.506;10.400;2023-11-19T01:21:40;5.27;;;4.77;;
9422;SDS011;65863;49.506;10.400;2023-11-19T01:24:24;4.73;;;4.33;;
9422;SDS011;65863;49.506;10.400;2023-11-19T01:27:12;5.47;;;4.97;;
9422;SDS011;65863;49.506;10.400;2023-11-19T01:29:56;5.10;;;4.60;;
9422;SDS011;65863;49.506;10.400;2023-11-19T01:32:40;5.63;;;5.00;;
9422;SDS011;65863;49.506;10.400;2023-11-19T01:35:24;5.23;;;4.53;;
9422;SDS011;65863;49.506;10.400;2023-11-19T01:38:08;5.03;;;4.63;;
9422;SDS011;65863;49.506;10.400;2023-11-19T01:40:59;5.17;;;4.70;;
9422;SDS011;65863;49.506;10.400;2023-11-19T01:43:43;6.67;;;4.50;;
9422;SDS011;65863;49.506;10.400;2023-11-19T01:46:30;4.63;;;4.07;;
9422;SDS011;65863;49.506;10.400;2023-11-19T01:49:17;4.10;;;3.80;;
9422;SDS011;65863;49.506;10.400;2023-11-19T01:52:03;3.97;;;3.60;;
9422;SDS011;65863;49.506;10.400;2023-11-19T01:54:47;3.77;;;3.43;;
9422;SDS011;65863;49.506;10.400;2023-11-19T01:57:32;3.77;;;3.47;;
9422;SDS011;65863;49.506;10.400;2023-11-19T02:00:17;3.50;;;3.13;;
9422;SDS011;65863;49.506;10.400;2023-11-19T02:03:03;3.83;;;3.50;;
9422;SDS011;65863;49.506;10.400;2023-11-19T02:05:48;3.93;;;3.63;;
9422;SDS011;65863;49.506;10.400;2023-11-19T02:08:34;3.73;;;3.43;;
9422;SDS011;65863;49.506;10.400;2023-11-19T02:11:18;3.43;;;3.13;;
9422;SDS011;65863;49.506;10.400;2023-11-19T02:14:02;3.60;;;3.30;;
9422;SDS011;65863;49.506;10.400;2023-11-19T02:16:50;3.57;;;3.27;;
9422;SDS011;65863;49.506;10.400;2023-11-19T02:19:35;2.93;;;2.73;;
9422;SDS011;65863;49.506;10.400;2023-11-19T02:22:19;2.97;;;2.77;;
9422;SDS011;65863;49.506;10.400;2023-11-19T02:25:04;3.10;;;2.90;;
9422;SDS011;65863;49.506;10.400;2023-11-19T02:27:55;2.90;;;2.70;;
9422;SDS011;65863;49.506;10.400;2023-11-19T02:30:43;4.43;;;2.70;;
9422;SDS011;65863;49.506;10.400;2023-11-19T02:33:27;2.93;;;2.70;;
9422;SDS011;65863;49.506;10.400;2023-11-19T02:36:11;2.77;;;2.57;;
9422;SDS011;65863;49.506;10.400;2023-11-19T02:38:55;2.40;;;2.20;;
9422;SDS011;65863;49.506;10.400;2023-11-19T02:41:39;2.70;;;2.50;;
9422;SDS011;65863;49.506;10.400;2023-11-19T02:44:23;2.50;;;2.30;;
9422;SDS011;65863;49.506;10.400;2023-11-19T02:47:08;2.90;;;2.70;;
9422;SDS011;65863;49.506;10.400;2023-11-19T02:49:52;2.63;;;2.43;;
9422;SDS011;65863;49.506;10.400;2023-11-19T02:52:37;3.10;;;2.90;;
9422;SDS011;65863;49.506;10.400;2023-11-19T02:55:21;2.80;;;2.60;;
9422;SDS011;65863;49.506;10.400;2023-11-19T02:58:07;3.10;;;2.90;;
9422;SDS011;65863;49.506;10.400;2023-11-19T03:01:04;3.00;;;2.80;;
9422;SDS011;65863;49.506;10.400;2023-11-19T03:03:56;2.77;;;2.57;;
9422;SDS011;65863;49.506;10.400;2023-11-19T03:06:41;4.33;;;2.90;;
9422;SDS011;65863;49.506;10.400;2023-11-19T03:09:26;3.03;;;2.80;;
9422;SDS011;65863;49.506;10.400;2023-11-19T03:12:10;3.00;;;2.77;;
9422;SDS011;65863;49.506;10.400;2023-11-19T03:14:55;3.10;;;2.80;;
9422;SDS011;65863;49.506;10.400;2023-11-19T03:17:40;4.20;;;2.97;;
9422;SDS011;65863;49.506;10.400;2023-11-19T03:20:25;2.90;;;2.70;;
9422;SDS011;65863;49.506;10.400;2023-11-19T03:23:11;2.77;;;2.50;;
9422;SDS011;65863;49.506;10.400;2023-11-19T03:25:56;2.53;;;2.33;;
9422;SDS011;65863;49.506;10.400;2023-11-19T03:28:40;2.50;;;2.30;;
9422;SDS011;65863;49.506;10.400;2023-11-19T03:31:25;2.53;;;1.90;;
9422;SDS011;65863;49.506;10.400;2023-11-19T03:34:09;2.03;;;1.83;;
9422;SDS011;65863;49.506;10.400;2023-11-19T03:36:53;1.60;;;1.50;;
9422;SDS011;65863;49.506;10.400;2023-11-19T03:39:38;1.30;;;1.20;;
9422;SDS011;65863;49.506;10.400;2023-11-19T03:42:22;3.43;;;1.43;;
9422;SDS011;65863;49.506;10.400;2023-11-19T03:45:07;1.60;;;1.50;;
9422;SDS011;65863;49.506;10.400;2023-11-19T03:47:54;1.57;;;1.47;;
9422;SDS011;65863;49.506;10.400;2023-11-19T03:50:39;1.60;;;1.50;;
9422;SDS011;65863;49.506;10.400;2023-11-19T03:53:24;1.80;;;1.70;;
9422;SDS011;65863;49.506;10.400;2023-11-19T03:56:09;1.63;;;1.53;;
9422;SDS011;65863;49.506;10.400;2023-11-19T03:58:54;1.10;;;1.10;;
9422;SDS011;65863;49.506;10.400;2023-11-19T04:01:39;1.20;;;1.20;;
9422;SDS011;65863;49.506;10.400;2023-11-19T04:04:23;1.00;;;1.00;;
9422;SDS011;65863;49.506;10.400;2023-11-19T04:07:07;1.40;;;1.30;;
9422;SDS011;65863;49.506;10.400;2023-11-19T04:09:52;1.10;;;1.10;;
9422;SDS011;65863;49.506;10.400;2023-11-19T04:12:37;1.10;;;1.10;;
9422;SDS011;65863;49.506;10.400;2023-11-19T04:15:21;2.20;;;1.10;;
9422;SDS011;65863;49.506;10.400;2023-11-19T04:18:06;1.30;;;1.20;;
9422;SDS011;65863;49.506;10.400;2023-11-19T04:20:50;1.10;;;1.10;;
9422;SDS011;65863;49.506;10.400;2023-11-19T04:23:34;0.90;;;0.90;;
9422;SDS011;65863;49.506;10.400;2023-11-19T04:26:19;1.10;;;1.10;;
9422;SDS011;65863;49.506;10.400;2023-11-19T04:29:03;1.00;;;1.00;;
9422;SDS011;65863;49.506;10.400;2023-11-19T04:31:47;1.10;;;1.10;;
9422;SDS011;65863;49.506;10.400;2023-11-19T04:34:32;0.90;;;0.90;;
9422;SDS011;65863;49.506;10.400;2023-11-19T04:37:16;1.00;;;1.00;;
9422;SDS011;65863;49.506;10.400;2023-11-19T04:40:00;1.10;;;1.00;;
9422;SDS011;65863;49.506;10.400;2023-11-19T04:42:45;1.27;;;1.20;;
9422;SDS011;65863;49.506;10.400;2023-11-19T04:45:29;1.10;;;1.10;;
9422;SDS011;65863;49.506;10.400;2023-11-19T04:48:13;1.40;;;1.30;;
9422;SDS011;65863;49.506;10.400;2023-11-19T04:50:57;1.20;;;1.20;;
9422;SDS011;65863;49.506;10.400;2023-11-19T04:53:40;1.50;;;1.30;;
9422;SDS011;65863;49.506;10.400;2023-11-19T04:56:25;1.40;;;1.33;;
9422;SDS011;65863;49.506;10.400;2023-11-19T04:59:09;1.50;;;1.40;;
9422;SDS011;65863;49.506;10.400;2023-11-19T05:01:53;1.23;;;1.13;;
9422;SDS011;65863;49.506;10.400;2023-11-19T05:04:37;1.80;;;1.70;;
9422;SDS011;65863;49.506;10.400;2023-11-19T05:07:21;1.30;;;1.30;;
9422;SDS011;65863;49.506;10.400;2023-11-19T05:10:05;1.50;;;1.40;;
9422;SDS011;65863;49.506;10.400;2023-11-19T05:12:51;1.50;;;1.40;;
9422;SDS011;65863;49.506;10.400;2023-11-19T05:15:35;1.60;;;1.50;;
9422;SDS011;65863;49.506;10.400;2023-11-19T05:18:19;1.50;;;1.40;;
9422;SDS011;65863;49.506;10.400;2023-11-19T05:21:04;1.50;;;1.40;;
9422;SDS011;65863;49.506;10.400;2023-11-19T05:23:48;1.20;;;1.20;;
9422;SDS011;65863;49.506;10.400;2023-11-19T05:26:32;1.47;;;1.37;;
9422;SDS011;65863;49.506;10.400;2023-11-19T05:29:17;0.90;;;0.90;;
9422;SDS011;65863;49.506;10.400;2023-11-19T05:32:01;1.37;;;1.27;;
9422;SDS011;65863;49.506;10.400;2023-11-19T05:34:45;1.60;;;1.07;;
9422;SDS011;65863;49.506;10.400;2023-11-19T05:37:30;1.20;;;1.10;;
9422;SDS011;65863;49.506;10.400;2023-11-19T05:40:14;1.10;;;1.10;;
9422;SDS011;65863;49.506;10.400;2023-11-19T05:42:59;0.97;;;0.97;;
9422;SDS011;65863;49.506;10.400;2023-11-19T05:45:43;0.90;;;0.90;;
9422;SDS011;65863;49.506;10.400;2023-11-19T05:48:27;1.00;;;1.00;;
9422;SDS011;65863;49.506;10.400;2023-11-19T05:51:12;1.17;;;1.00;;
9422;SDS011;65863;49.506;10.400;2023-11-19T05:53:58;0.70;;;0.70;;
9422;SDS011;65863;49.506;10.400;2023-11-19T05:56:47;0.80;;;0.80;;
9422;SDS011;65863;49.506;10.400;2023-11-19T05:59:33;0.90;;;0.90;;
9422;SDS011;65863;49.506;10.400;2023-11-19T06:02:18;1.13;;;0.90;;
9422;SDS011;65863;49.506;10.400;2023-11-19T06:05:03;0.93;;;0.93;;
9422;SDS011;65863;49.506;10.400;2023-11-19T06:07:49;1.30;;;1.00;;
9422;SDS011;65863;49.506;10.400;2023-11-19T06:10:35;0.93;;;0.93;;
9422;SDS011;65863;49.506;10.400;2023-11-19T06:13:19;1.10;;;1.10;;
9422;SDS011;65863;49.506;10.400;2023-11-19T06:16:05;1.23;;;1.17;;
9422;SDS011;65863;49.506;10.400;2023-11-19T06:18:54;1.47;;;1.20;;
9422;SDS011;65863;49.506;10.400;2023-11-19T06:21:38;2.17;;;1.10;;
9422;SDS011;65863;49.506;10.400;2023-11-19T06:24:22;1.33;;;1.13;;
9422;SDS011;65863;49.506;10.400;2023-11-19T06:27:06;0.87;;;0.87;;
9422;SDS011;65863;49.506;10.400;2023-11-19T06:29:50;0.87;;;0.87;;
9422;SDS011;65863;49.506;10.400;2023-11-19T06:32:34;2.10;;;1.10;;
9422;SDS011;65863;49.506;10.400;2023-11-19T06:35:18;1.10;;;1.00;;
9422;SDS011;65863;49.506;10.400;2023-11-19T06:38:02;0.93;;;0.93;;
9422;SDS011;65863;49.506;10.400;2023-11-19T06:40:48;1.00;;;1.00;;
9422;SDS011;65863;49.506;10.400;2023-11-19T06:43:32;1.00;;;1.00;;
9422;SDS011;65863;49.506;10.400;2023-11-19T06:46:17;0.90;;;0.90;;
9422;SDS011;65863;49.506;10.400;2023-11-19T06:49:02;2.53;;;0.90;;
9422;SDS011;65863;49.506;10.400;2023-11-19T06:51:46;1.30;;;1.03;;
9422;SDS011;65863;49.506;10.400;2023-11-19T06:54:30;0.80;;;0.77;;
9422;SDS011;65863;49.506;10.400;2023-11-19T06:57:14;1.50;;;0.97;;
9422;SDS011;65863;49.506;10.400;2023-11-19T06:59:58;0.70;;;0.70;;
9422;SDS011;65863;49.506;10.400;2023-11-19T07:02:43;0.87;;;0.87;;
9422;SDS011;65863;49.506;10.400;2023-11-19T07:05:28;0.97;;;0.97;;
9422;SDS011;65863;49.506;10.400;2023-11-19T07:08:12;0.80;;;0.80;;
9422;SDS011;65863;49.506;10.400;2023-11-19T07:10:56;0.93;;;0.90;;
9422;SDS011;65863;49.506;10.400;2023-11-19T07:13:40;1.00;;;1.00;;
9422;SDS011;65863;49.506;10.400;2023-11-19T07:16:25;0.70;;;0.70;;
9422;SDS011;65863;49.506;10.400;2023-11-19T07:19:09;1.27;;;1.00;;
9422;SDS011;65863;49.506;10.400;2023-11-19T07:21:53;1.00;;;1.00;;
9422;SDS011;65863;49.506;10.400;2023-11-19T07:24:41;1.37;;;1.07;;
9422;SDS011;65863;49.506;10.400;2023-11-19T07:27:25;1.03;;;1.00;;
9422;SDS011;65863;49.506;10.400;2023-11-19T07:30:09;1.27;;;1.17;;
9422;SDS011;65863;49.506;10.400;2023-11-19T07:32:53;1.13;;;1.13;;
9422;SDS011;65863;49.506;10.400;2023-11-19T07:35:38;1.30;;;1.20;;
9422;SDS011;65863;49.506;10.400;2023-11-19T07:38:22;1.20;;;1.20;;
9422;SDS011;65863;49.506;10.400;2023-11-19T07:41:06;1.47;;;1.37;;
9422;SDS011;65863;49.506;10.400;2023-11-19T07:43:52;1.77;;;1.50;;
9422;SDS011;65863;49.506;10.400;2023-11-19T07:46:37;1.30;;;1.30;;
9422;SDS011;65863;49.506;10.400;2023-11-19T07:49:21;1.43;;;1.33;;
9422;SDS011;65863;49.506;10.400;2023-11-19T07:52:04;1.33;;;1.20;;
9422;SDS011;65863;49.506;10.400;2023-11-19T07:54:49;2.53;;;1.17;;
9422;SDS011;65863;49.506;10.400;2023-11-19T07:57:33;1.50;;;1.07;;
9422;SDS011;65863;49.506;10.400;2023-11-19T08:00:17;1.37;;;1.27;;
9422;SDS011;65863;49.506;10.400;2023-11-19T08:03:01;1.30;;;1.20;;
9422;SDS011;65863;49.506;10.400;2023-11-19T08:05:45;0.90;;;0.90;;
9422;SDS011;65863;49.506;10.400;2023-11-19T08:09:15;1.77;;;1.20;;
9422;SDS011;65863;49.506;10.400;2023-11-19T08:11:43;0.80;;;0.80;;
9422;SDS011;65863;49.506;10.400;2023-11-19T08:14:27;1.97;;;1.10;;
9422;SDS011;65863;49.506;10.400;2023-11-19T08:17:12;1.43;;;1.20;;
9422;SDS011;65863;49.506;10.400;2023-11-19T08:19:56;0.83;;;0.80;;
9422;SDS011;65863;49.506;10.400;2023-11-19T08:22:40;2.57;;;1.00;;
9422;SDS011;65863;49.506;10.400;2023-11-19T08:25:24;1.47;;;1.00;;
9422;SDS011;65863;49.506;10.400;2023-11-19T08:28:08;1.37;;;0.83;;
9422;SDS011;65863;49.506;10.400;2023-11-19T08:30:51;2.80;;;1.30;;
9422;SDS011;65863;49.506;10.400;2023-11-19T08:33:36;0.80;;;0.80;;
9422;SDS011;65863;49.506;10.400;2023-11-19T08:36:20;1.27;;;1.00;;
9422;SDS011;65863;49.506;10.400;2023-11-19T08:39:05;1.23;;;0.87;;
9422;SDS011;65863;49.506;10.400;2023-11-19T08:41:48;4.33;;;1.43;;
9422;SDS011;65863;49.506;10.400;2023-11-19T08:44:32;1.00;;;0.90;;
9422;SDS011;65863;49.506;10.400;2023-11-19T08:47:16;1.27;;;0.90;;
9422;SDS011;65863;49.506;10.400;2023-11-19T08:50:03;0.77;;;0.77;;
9422;SDS011;65863;49.506;10.400;2023-11-19T08:52:48;1.23;;;1.00;;
9422;SDS011;65863;49.506;10.400;2023-11-19T08:55:32;2.17;;;0.90;;
9422;SDS011;65863;49.506;10.400;2023-11-19T08:58:16;1.37;;;0.70;;
9422;SDS011;65863;49.506;10.400;2023-11-19T09:01:00;0.70;;;0.63;;
9422;SDS011;65863;49.506;10.400;2023-11-19T09:03:44;1.73;;;1.13;;
9422;SDS011;65863;49.506;10.400;2023-11-19T09:06:28;1.13;;;0.83;;
9422;SDS011;65863;49.506;10.400;2023-11-19T09:09:12;1.03;;;1.00;;
9422;SDS011;65863;49.506;10.400;2023-11-19T09:11:56;2.93;;;1.07;;
9422;SDS011;65863;49.506;10.400;2023-11-19T09:14:40;1.80;;;1.50;;
9422;SDS011;65863;49.506;10.400;2023-11-19T09:17:25;0.70;;;0.70;;
9422;SDS011;65863;49.506;10.400;2023-11-19T09:20:09;1.40;;;0.87;;
9422;SDS011;65863;49.506;10.400;2023-11-19T09:22:56;1.10;;;0.87;;
9422;SDS011;65863;49.506;10.400;2023-11-19T09:25:40;1.03;;;0.70;;
9422;SDS011;65863;49.506;10.400;2023-11-19T09:28:24;2.17;;;0.90;;
9422;SDS011;65863;49.506;10.400;2023-11-19T09:31:14;0.80;;;0.80;;
9422;SDS011;65863;49.506;10.400;2023-11-19T09:34:00;3.23;;;1.03;;
9422;SDS011;65863;49.506;10.400;2023-11-19T09:36:44;2.13;;;1.00;;
9422;SDS011;65863;49.506;10.400;2023-11-19T09:39:28;2.03;;;0.80;;
9422;SDS011;65863;49.506;10.400;2023-11-19T09:42:12;2.03;;;0.90;;
9422;SDS011;65863;49.506;10.400;2023-11-19T09:44:56;1.83;;;1.00;;
9422;SDS011;65863;49.506;10.400;2023-11-19T09:47:43;0.97;;;0.77;;
9422;SDS011;65863;49.506;10.400;2023-11-19T09:50:28;2.30;;;0.80;;
9422;SDS011;65863;49.506;10.400;2023-11-19T09:53:13;6.03;;;2.03;;
9422;SDS011;65863;49.506;10.400;2023-11-19T09:55:57;0.73;;;0.70;;
9422;SDS011;65863;49.506;10.400;2023-11-19T09:58:44;0.60;;;0.60;;
9422;SDS011;65863;49.506;10.400;2023-11-19T10:01:28;2.87;;;0.50;;
9422;SDS011;65863;49.506;10.400;2023-11-19T10:04:15;0.50;;;0.50;;
9422;SDS011;65863;49.506;10.400;2023-11-19T10:07:02;0.43;;;0.43;;
9422;SDS011;65863;49.506;10.400;2023-11-19T10:09:46;1.47;;;0.60;;
9422;SDS011;65863;49.506;10.400;2023-11-19T10:12:31;1.40;;;0.60;;
9422;SDS011;65863;49.506;10.400;2023-11-19T10:15:22;0.50;;;0.50;;
9422;SDS011;65863;49.506;10.400;2023-11-19T10:18:10;1.50;;;1.03;;
9422;SDS011;65863;49.506;10.400;2023-11-19T10:20:54;1.47;;;1.13;;
9422;SDS011;65863;49.506;10.400;2023-11-19T10:23:48;1.47;;;0.97;;
9422;SDS011;65863;49.506;10.400;2023-11-19T10:26:43;2.43;;;0.90;;
9422;SDS011;65863;49.506;10.400;2023-11-19T10:29:27;1.57;;;0.90;;
9422;SDS011;65863;49.506;10.400;2023-11-19T10:32:13;1.50;;;1.23;;
9422;SDS011;65863;49.506;10.400;2023-11-19T10:35:07;0.80;;;0.80;;
9422;SDS011;65863;49.506;10.400;2023-11-19T10:37:51;1.13;;;0.93;;
9422;SDS011;65863;49.506;10.400;2023-11-19T10:40:38;2.00;;;1.00;;
9422;SDS011;65863;49.506;10.400;2023-11-19T10:43:25;1.43;;;0.80;;
9422;SDS011;65863;49.506;10.400;2023-11-19T10:46:10;1.10;;;1.00;;
9422;SDS011;65863;49.506;10.400;2023-11-19T10:48:55;1.33;;;0.80;;
9422;SDS011;65863;49.506;10.400;2023-11-19T10:51:44;3.77;;;0.97;;
9422;SDS011;65863;49.506;10.400;2023-11-19T10:54:30;1.90;;;0.70;;
9422;SDS011;65863;49.506;10.400;2023-11-19T10:57:17;1.63;;;0.90;;
9422;SDS011;65863;49.506;10.400;2023-11-19T11:00:04;2.83;;;1.20;;
9422;SDS011;65863;49.506;10.400;2023-11-19T11:02:56;1.87;;;0.80;;
9422;SDS011;65863;49.506;10.400;2023-11-19T11:05:47;1.53;;;0.90;;
9422;SDS011;65863;49.506;10.400;2023-11-19T11:08:32;3.13;;;0.63;;
9422;SDS011;65863;49.506;10.400;2023-11-19T11:11:20;1.53;;;0.83;;
9422;SDS011;65863;49.506;10.400;2023-11-19T11:14:06;2.23;;;1.30;;
9422;SDS011;65863;49.506;10.400;2023-11-19T11:16:51;2.90;;;1.00;;
9422;SDS011;65863;49.506;10.400;2023-11-19T11:19:36;2.87;;;0.80;;
9422;SDS011;65863;49.506;10.400;2023-11-19T11:22:21;1.40;;;0.90;;
9422;SDS011;65863;49.506;10.400;2023-11-19T11:25:13;1.03;;;0.90;;
9422;SDS011;65863;49.506;10.400;2023-11-19T11:37:42;4.73;;;1.00;;
9422;SDS011;65863;49.506;10.400;2023-11-19T11:40:31;2.40;;;1.03;;
9422;SDS011;65863;49.506;10.400;2023-11-19T11:49:15;2.77;;;0.90;;
9422;SDS011;65863;49.506;10.400;2023-11-19T11:52:08;1.40;;;1.13;;
9422;SDS011;65863;49.506;10.400;2023-11-19T11:55:02;1.20;;;1.10;;
9422;SDS011;65863;49.506;10.400;2023-11-19T11:57:48;2.13;;;1.47;;
9422;SDS011;65863;49.506;10.400;2023-11-19T12:00:32;6.10;;;1.80;;
9422;SDS011;65863;49.506;10.400;2023-11-19T12:03:21;1.70;;;1.23;;
9422;SDS011;65863;49.506;10.400;2023-11-19T12:06:06;2.90;;;1.30;;
9422;SDS011;65863;49.506;10.400;2023-11-19T12:08:52;2.90;;;1.27;;
9422;SDS011;65863;49.506;10.400;2023-11-19T12:11:37;1.57;;;1.20;;
9422;SDS011;65863;49.506;10.400;2023-11-19T12:14:47;1.00;;;1.00;;
9422;SDS011;65863;49.506;10.400;2023-11-19T12:17:48;1.70;;;1.00;;
9422;SDS011;65863;49.506;10.400;2023-11-19T12:20:33;2.67;;;1.20;;
9422;SDS011;65863;49.506;10.400;2023-11-19T12:23:19;1.83;;;0.77;;
9422;SDS011;65863;49.506;10.400;2023-11-19T12:26:03;1.67;;;1.10;;
9422;SDS011;65863;49.506;10.400;2023-11-19T12:28:57;0.73;;;0.73;;
9422;SDS011;65863;49.506;10.400;2023-11-19T12:31:44;0.87;;;0.80;;
9422;SDS011;65863;49.506;10.400;2023-11-19T12:34:28;2.80;;;0.90;;
9422;SDS011;65863;49.506;10.400;2023-11-19T12:37:12;1.50;;;1.00;;
9422;SDS011;65863;49.506;10.400;2023-11-19T12:39:56;1.00;;;0.73;;
9422;SDS011;65863;49.506;10.400;2023-11-19T12:42:41;1.00;;;0.80;;
9422;SDS011;65863;49.506;10.400;2023-11-19T12:45:27;3.17;;;1.00;;
9422;SDS011;65863;49.506;10.400;2023-11-19T12:48:19;0.83;;;0.70;;
9422;SDS011;65863;49.506;10.400;2023-11-19T12:51:03;2.60;;;0.77;;
9422;SDS011;65863;49.506;10.400;2023-11-19T12:53:47;1.83;;;0.80;;
9422;SDS011;65863;49.506;10.400;2023-11-19T12:56:38;1.67;;;0.80;;
9422;SDS011;65863;49.506;10.400;2023-11-19T12:59:22;1.40;;;0.73;;
9422;SDS011;65863;49.506;10.400;2023-11-19T13:02:05;1.00;;;0.90;;
9422;SDS011;65863;49.506;10.400;2023-11-19T13:04:50;2.73;;;0.93;;
9422;SDS011;65863;49.506;10.400;2023-11-19T13:07:34;2.27;;;0.87;;
9422;SDS011;65863;49.506;10.400;2023-11-19T13:10:18;3.37;;;1.27;;
9422;SDS011;65863;49.506;10.400;2023-11-19T13:13:06;0.80;;;0.80;;
9422;SDS011;65863;49.506;10.400;2023-11-19T13:16:01;3.30;;;1.30;;
9422;SDS011;65863;49.506;10.400;2023-11-19T13:18:46;2.07;;;1.00;;
9422;SDS011;65863;49.506;10.400;2023-11-19T13:21:31;1.10;;;0.90;;
9422;SDS011;65863;49.506;10.400;2023-11-19T13:24:15;1.63;;;1.00;;
9422;SDS011;65863;49.506;10.400;2023-11-19T13:26:59;0.70;;;0.63;;
9422;SDS011;65863;49.506;10.400;2023-11-19T13:29:43;1.20;;;0.80;;
9422;SDS011;65863;49.506;10.400;2023-11-19T13:32:27;0.93;;;0.70;;
9422;SDS011;65863;49.506;10.400;2023-11-19T13:35:14;1.27;;;1.10;;
9422;SDS011;65863;49.506;10.400;2023-11-19T13:37:59;3.57;;;1.00;;
9422;SDS011;65863;49.506;10.400;2023-11-19T13:40:43;3.73;;;1.07;;
9422;SDS011;65863;49.506;10.400;2023-11-19T13:43:27;1.37;;;0.73;;
9422;SDS011;65863;49.506;10.400;2023-11-19T13:46:12;3.97;;;1.10;;
9422;SDS011;65863;49.506;10.400;2023-11-19T13:48:56;1.43;;;0.90;;
9422;SDS011;65863;49.506;10.400;2023-11-19T13:51:40;1.83;;;0.70;;
9422;SDS011;65863;49.506;10.400;2023-11-19T13:54:23;2.83;;;1.00;;
9422;SDS011;65863;49.506;10.400;2023-11-19T13:57:07;1.63;;;0.83;;
9422;SDS011;65863;49.506;10.400;2023-11-19T13:59:52;1.10;;;0.80;;
9422;SDS011;65863;49.506;10.400;2023-11-19T14:02:36;3.20;;;0.77;;
9422;SDS011;65863;49.506;10.400;2023-11-19T14:05:20;1.87;;;0.93;;
9422;SDS011;65863;49.506;10.400;2023-11-19T14:08:04;1.57;;;0.83;;
9422;SDS011;65863;49.506;10.400;2023-11-19T14:10:55;2.67;;;1.20;;
9422;SDS011;65863;49.506;10.400;2023-11-19T14:13:39;2.47;;;1.00;;
9422;SDS011;65863;49.506;10.400;2023-11-19T14:16:27;2.53;;;1.00;;
9422;SDS011;65863;49.506;10.400;2023-11-19T14:19:11;1.27;;;0.83;;
9422;SDS011;65863;49.506;10.400;2023-11-19T14:21:55;2.50;;;1.30;;
9422;SDS011;65863;49.506;10.400;2023-11-19T14:24:39;5.67;;;1.30;;
9422;SDS011;65863;49.506;10.400;2023-11-19T14:27:25;2.30;;;0.80;;
9422;SDS011;65863;49.506;10.400;2023-11-19T14:30:10;3.00;;;1.00;;
9422;SDS011;65863;49.506;10.400;2023-11-19T14:32:57;2.00;;;0.93;;
9422;SDS011;65863;49.506;10.400;2023-11-19T14:35:40;2.60;;;0.90;;
9422;SDS011;65863;49.506;10.400;2023-11-19T14:38:24;1.53;;;1.00;;
9422;SDS011;65863;49.506;10.400;2023-11-19T14:41:08;3.20;;;1.00;;
9422;SDS011;65863;49.506;10.400;2023-11-19T14:43:52;1.70;;;0.90;;
9422;SDS011;65863;49.506;10.400;2023-11-19T14:46:36;0.67;;;0.67;;
9422;SDS011;65863;49.506;10.400;2023-11-19T14:49:21;2.10;;;1.07;;
9422;SDS011;65863;49.506;10.400;2023-11-19T14:52:05;1.93;;;1.20;;
9422;SDS011;65863;49.506;10.400;2023-11-19T14:54:49;2.83;;;0.80;;
9422;SDS011;65863;49.506;10.400;2023-11-19T14:57:35;1.73;;;0.90;;
9422;SDS011;65863;49.506;10.400;2023-11-19T15:00:20;2.50;;;1.13;;
9422;SDS011;65863;49.506;10.400;2023-11-19T15:03:05;2.67;;;1.23;;
9422;SDS011;65863;49.506;10.400;2023-11-19T15:05:50;2.40;;;1.30;;
9422;SDS011;65863;49.506;10.400;2023-11-19T15:08:34;2.90;;;0.90;;
9422;SDS011;65863;49.506;10.400;2023-11-19T15:11:18;1.23;;;1.20;;
9422;SDS011;65863;49.506;10.400;2023-11-19T15:14:02;2.33;;;1.43;;
9422;SDS011;65863;49.506;10.400;2023-11-19T15:16:47;3.77;;;2.00;;
9422;SDS011;65863;49.506;10.400;2023-11-19T15:19:32;2.37;;;0.80;;
9422;SDS011;65863;49.506;10.400;2023-11-19T15:22:17;1.00;;;0.70;;
9422;SDS011;65863;49.506;10.400;2023-11-19T15:25:02;1.17;;;1.07;;
9422;SDS011;65863;49.506;10.400;2023-11-19T15:27:46;2.27;;;1.20;;
9422;SDS011;65863;49.506;10.400;2023-11-19T15:30:31;2.93;;;1.00;;
9422;SDS011;65863;49.506;10.400;2023-11-19T15:33:15;2.00;;;0.90;;
9422;SDS011;65863;49.506;10.400;2023-11-19T15:35:59;3.37;;;1.20;;
9422;SDS011;65863;49.506;10.400;2023-11-19T15:38:44;2.73;;;1.00;;
9422;SDS011;65863;49.506;10.400;2023-11-19T15:41:28;2.03;;;1.00;;
9422;SDS011;65863;49.506;10.400;2023-11-19T15:44:14;2.20;;;0.70;;
9422;SDS011;65863;49.506;10.400;2023-11-19T15:46:58;1.87;;;0.97;;
9422;SDS011;65863;49.506;10.400;2023-11-19T15:49:42;1.53;;;0.90;;
9422;SDS011;65863;49.506;10.400;2023-11-19T15:52:26;2.33;;;1.00;;
9422;SDS011;65863;49.506;10.400;2023-11-19T15:55:10;2.63;;;1.70;;
9422;SDS011;65863;49.506;10.400;2023-11-19T15:57:57;4.43;;;1.40;;
9422;SDS011;65863;49.506;10.400;2023-11-19T16:00:41;2.67;;;1.40;;
9422;SDS011;65863;49.506;10.400;2023-11-19T16:03:30;2.23;;;1.10;;
9422;SDS011;65863;49.506;10.400;2023-11-19T16:06:15;2.20;;;1.37;;
9422;SDS011;65863;49.506;10.400;2023-11-19T16:08:59;3.87;;;1.67;;
9422;SDS011;65863;49.506;10.400;2023-11-19T16:11:46;2.40;;;2.03;;
9422;SDS011;65863;49.506;10.400;2023-11-19T16:14:30;3.27;;;1.60;;
9422;SDS011;65863;49.506;10.400;2023-11-19T16:17:14;6.43;;;2.93;;
9422;SDS011;65863;49.506;10.400;2023-11-19T16:19:58;4.23;;;2.63;;
9422;SDS011;65863;49.506;10.400;2023-11-19T16:22:42;3.23;;;1.63;;
9422;SDS011;65863;49.506;10.400;2023-11-19T16:25:29;2.33;;;1.40;;
9422;SDS011;65863;49.506;10.400;2023-11-19T16:28:13;1.83;;;1.27;;
9422;SDS011;65863;49.506;10.400;2023-11-19T16:30:58;1.40;;;0.90;;
9422;SDS011;65863;49.506;10.400;2023-11-19T16:33:42;2.97;;;1.10;;
9422;SDS011;65863;49.506;10.400;2023-11-19T16:36:26;0.90;;;0.90;;
9422;SDS011;65863;49.506;10.400;2023-11-19T16:39:11;2.63;;;1.53;;
9422;SDS011;65863;49.506;10.400;2023-11-19T16:41:56;2.93;;;1.57;;
9422;SDS011;65863;49.506;10.400;2023-11-19T16:44:41;2.00;;;1.00;;
9422;SDS011;65863;49.506;10.400;2023-11-19T16:47:25;4.20;;;1.33;;
9422;SDS011;65863;49.506;10.400;2023-11-19T16:50:09;3.33;;;1.63;;
9422;SDS011;65863;49.506;10.400;2023-11-19T16:52:55;2.70;;;1.20;;